Time;durP1;ratioP1;P1;durP2;ratioP2;P2;SDS_P1;SDS_P2;PMS_P1;PMS_P2;Temp;Humidity;BMP_temperature;BMP_pressure;BME280_temperature;BME280_humidity;BME280_pressure;Samples;Min_cycle;Max_cycle;Signal;HPM_P1;HPM_P2
2022/02/28 00:00:26;;;;;;;;;;;5.00;98.10;;;;;;5074739;28;19951;-65
2022/02/28 00:02:51;;;;;;;;;;;5.00;98.20;;;;;;5057408;28;20265;-68
2022/02/28 00:05:17;;;;;;;;;;;4.90;98.30;;;;;;5075313;28;19919;-68
2022/02/28 00:07:42;;;;;;;;;;;4.90;98.50;;;;;;5056454;28;20304;-65
2022/02/28 00:10:08;;;;;;;;;;;4.80;98.60;;;;;;5056941;28;20281;-65
2022/02/28 00:12:34;;;;;;;;;;;4.70;98.70;;;;;;5056178;28;20243;-64
2022/02/28 00:14:59;;;;;;;;;;;4.70;98.90;;;;;;5074683;28;19923;-64
2022/02/28 00:17:25;;;;;;;;;;;4.80;98.90;;;;;;5056442;28;19909;-65
2022/02/28 00:19:51;;;;;;;;;;;4.80;98.80;;;;;;5074941;28;20003;-64
2022/02/28 00:22:16;;;;;;;;;;;4.70;98.90;;;;;;5074301;28;19980;-69
2022/02/28 00:24:42;;;;;;;;;;;4.70;99.10;;;;;;5056287;28;19916;-65
2022/02/28 00:27:07;;;;;;;;;;;4.70;99.20;;;;;;5056765;28;20455;-66
2022/02/28 00:29:33;;;;;;;;;;;4.70;99.20;;;;;;5073910;28;19961;-64
2022/02/28 00:31:58;;;;;;;;;;;4.70;99.30;;;;;;5056514;28;19962;-65
2022/02/28 00:34:24;;;;;;;;;;;4.70;99.40;;;;;;5073890;28;20001;-66
2022/02/28 00:36:50;;;;;;;;;;;4.60;99.50;;;;;;5056569;28;20046;-65
2022/02/28 00:39:16;;;;;;;;;;;4.60;99.70;;;;;;5074564;28;19908;-64
2022/02/28 00:41:41;;;;;;;;;;;4.50;99.70;;;;;;5056050;28;19918;-65
2022/02/28 00:44:07;;;;;;;;;;;4.60;99.70;;;;;;5074790;28;19955;-70
2022/02/28 00:46:33;;;;;;;;;;;4.50;99.80;;;;;;5055958;28;19912;-65
2022/02/28 00:48:58;;;;;;;;;;;4.60;99.90;;;;;;5056433;28;19943;-64
2022/02/28 00:51:24;;;;;;;;;;;4.50;99.90;;;;;;5055702;28;19908;-68
2022/02/28 00:53:49;;;;;;;;;;;4.40;99.90;;;;;;5056126;28;19922;-64
2022/02/28 00:56:15;;;;;;;;;;;4.40;99.90;;;;;;5073510;28;19919;-66
2022/02/28 00:58:40;;;;;;;;;;;4.30;99.90;;;;;;5073674;28;19914;-64
2022/02/28 01:01:06;;;;;;;;;;;4.40;99.90;;;;;;5056570;28;20412;-67
2022/02/28 01:03:31;;;;;;;;;;;4.40;99.90;;;;;;5074336;28;20415;-65
2022/02/28 01:05:57;;;;;;;;;;;4.30;99.90;;;;;;5074989;28;19920;-66
2022/02/28 01:08:23;;;;;;;;;;;4.20;99.90;;;;;;5074485;28;19909;-67
2022/02/28 01:10:48;;;;;;;;;;;4.20;99.90;;;;;;5074452;28;19909;-70
2022/02/28 01:13:14;;;;;;;;;;;4.20;99.90;;;;;;5075218;28;19908;-67
2022/02/28 01:15:40;;;;;;;;;;;4.10;99.90;;;;;;5074480;28;19909;-71
2022/02/28 01:18:07;;;;;;;;;;;4.10;99.90;;;;;;5074723;28;20387;-66
2022/02/28 01:20:33;;;;;;;;;;;4.10;99.90;;;;;;5056009;28;19915;-64
2022/02/28 01:22:58;;;;;;;;;;;4.00;99.90;;;;;;5073893;28;20356;-65
2022/02/28 01:25:24;;;;;;;;;;;4.00;99.90;;;;;;5073257;28;19970;-72
2022/02/28 01:27:49;;;;;;;;;;;4.00;99.90;;;;;;5055342;28;19908;-65
2022/02/28 01:30:15;;;;;;;;;;;4.00;99.90;;;;;;5073605;28;19908;-69
2022/02/28 01:32:41;;;;;;;;;;;4.00;99.90;;;;;;5054425;28;20362;-64
2022/02/28 01:35:08;;;;;;;;;;;4.00;99.90;;;;;;5073287;28;19920;-65
2022/02/28 01:37:33;;;;;;;;;;;4.00;99.90;;;;;;5054882;28;19916;-66
2022/02/28 01:39:59;;;;;;;;;;;4.10;99.90;;;;;;5073490;28;19908;-65
2022/02/28 01:42:25;;;;;;;;;;;4.00;99.90;;;;;;5073215;28;19917;-65
2022/02/28 01:44:50;;;;;;;;;;;4.10;99.90;;;;;;5073215;28;19909;-64
2022/02/28 01:47:16;;;;;;;;;;;4.00;99.90;;;;;;5055222;28;19912;-65
2022/02/28 01:49:41;;;;;;;;;;;3.90;99.90;;;;;;5072672;28;19923;-66
2022/02/28 01:52:07;;;;;;;;;;;3.90;99.90;;;;;;5072909;28;19916;-66
2022/02/28 01:54:32;;;;;;;;;;;3.80;99.90;;;;;;5072431;28;19908;-65
2022/02/28 01:56:58;;;;;;;;;;;3.80;99.90;;;;;;5054909;28;19912;-65
2022/02/28 01:59:24;;;;;;;;;;;3.80;99.90;;;;;;5073011;28;19909;-65
2022/02/28 02:01:49;;;;;;;;;;;3.80;99.90;;;;;;5054111;28;19909;-67
2022/02/28 02:04:15;;;;;;;;;;;3.80;99.90;;;;;;5072811;28;19916;-65
2022/02/28 02:06:41;;;;;;;;;;;3.80;99.90;;;;;;5054350;28;19909;-65
2022/02/28 02:09:06;;;;;;;;;;;3.80;99.90;;;;;;5072472;28;19927;-65
2022/02/28 02:11:32;;;;;;;;;;;3.80;99.90;;;;;;5072043;28;19909;-64
2022/02/28 02:13:58;;;;;;;;;;;3.70;99.90;;;;;;5054530;28;19948;-65
2022/02/28 02:16:24;;;;;;;;;;;3.80;99.90;;;;;;5072889;28;19909;-65
2022/02/28 02:18:49;;;;;;;;;;;3.70;99.90;;;;;;5071935;28;20258;-64
2022/02/28 02:21:15;;;;;;;;;;;3.80;99.90;;;;;;5055271;28;20369;-65
2022/02/28 02:23:42;;;;;;;;;;;3.80;99.90;;;;;;5050323;28;19932;-67
2022/02/28 02:26:09;;;;;;;;;;;3.80;99.90;;;;;;5051287;28;20310;-64
2022/02/28 02:28:36;;;;;;;;;;;3.70;99.90;;;;;;5052388;28;19909;-64
2022/02/28 02:31:04;;;;;;;;;;;3.70;99.90;;;;;;5052488;28;20274;-66
2022/02/28 02:33:29;;;;;;;;;;;3.60;99.90;;;;;;5052328;28;19915;-65
2022/02/28 02:35:56;;;;;;;;;;;3.60;99.90;;;;;;5052308;28;19909;-66
2022/02/28 02:38:22;;;;;;;;;;;3.70;99.90;;;;;;5052656;28;19909;-66
2022/02/28 02:40:47;;;;;;;;;;;3.70;99.90;;;;;;5052109;28;19920;-64
2022/02/28 02:43:13;;;;;;;;;;;3.70;99.90;;;;;;5050917;28;20335;-67
2022/02/28 02:45:38;;;;;;;;;;;3.70;99.90;;;;;;5053800;28;19909;-66
2022/02/28 02:48:10;;;;;;;;;;;3.60;99.90;;;;;;5055251;28;19959;-63
2022/02/28 02:50:36;;;;;;;;;;;3.50;99.90;;;;;;5055949;28;19909;-67
2022/02/28 02:53:01;;;;;;;;;;;3.60;99.90;;;;;;5056515;28;20297;-64
2022/02/28 02:55:27;;;;;;;;;;;3.50;99.90;;;;;;5056244;28;20362;-66
2022/02/28 02:57:52;;;;;;;;;;;3.50;99.90;;;;;;5056336;28;19909;-70
2022/02/28 03:00:18;;;;;;;;;;;3.40;99.90;;;;;;5055576;28;19916;-65
2022/02/28 03:02:43;;;;;;;;;;;3.40;99.90;;;;;;5056200;28;19917;-71
2022/02/28 03:05:09;;;;;;;;;;;3.40;99.90;;;;;;5058977;28;19908;-66
2022/02/28 03:07:34;;;;;;;;;;;3.30;99.90;;;;;;5056327;28;19913;-66
2022/02/28 03:10:00;;;;;;;;;;;3.30;99.90;;;;;;5057769;28;20000;-66
2022/02/28 03:12:25;;;;;;;;;;;3.40;99.90;;;;;;5054930;28;20374;-65
2022/02/28 03:14:51;;;;;;;;;;;3.40;99.90;;;;;;5055374;28;19916;-65
2022/02/28 03:17:16;;;;;;;;;;;3.40;99.90;;;;;;5057050;28;20018;-65
2022/02/28 03:19:42;;;;;;;;;;;3.30;99.90;;;;;;5055928;28;20005;-66
2022/02/28 03:22:07;;;;;;;;;;;3.40;99.90;;;;;;5059077;28;20027;-66
2022/02/28 03:24:33;;;;;;;;;;;3.30;99.90;;;;;;5075458;28;20366;-64
2022/02/28 03:26:58;;;;;;;;;;;3.40;99.90;;;;;;5075337;28;19916;-66
2022/02/28 03:29:24;;;;;;;;;;;3.30;99.90;;;;;;5057875;28;19916;-65
2022/02/28 03:31:49;;;;;;;;;;;3.30;99.90;;;;;;5056917;28;19909;-64
2022/02/28 03:34:15;;;;;;;;;;;3.40;99.90;;;;;;5075689;28;19908;-66
2022/02/28 03:36:40;;;;;;;;;;;3.20;99.90;;;;;;5056398;28;19913;-64
2022/02/28 03:39:06;;;;;;;;;;;3.20;99.90;;;;;;5057513;28;19969;-64
2022/02/28 03:41:32;;;;;;;;;;;3.10;99.90;;;;;;5075275;28;20411;-71
2022/02/28 03:43:57;;;;;;;;;;;3.20;99.90;;;;;;5057508;28;20015;-66
2022/02/28 03:46:23;;;;;;;;;;;3.30;99.90;;;;;;5075567;28;19916;-65
2022/02/28 03:48:48;;;;;;;;;;;3.30;99.90;;;;;;5074533;28;19909;-66
2022/02/28 03:51:14;;;;;;;;;;;3.30;99.90;;;;;;5074964;28;19909;-64
2022/02/28 03:53:39;;;;;;;;;;;3.30;99.90;;;;;;5074139;28;19913;-66
2022/02/28 03:56:06;;;;;;;;;;;3.20;99.90;;;;;;5056403;28;19913;-65
2022/02/28 03:58:37;;;;;;;;;;;3.20;99.90;;;;;;5075324;28;20271;-64
2022/02/28 04:01:04;;;;;;;;;;;3.10;99.90;;;;;;5056899;28;20013;-64
2022/02/28 04:03:29;;;;;;;;;;;3.20;99.90;;;;;;5074800;28;19916;-66
2022/02/28 04:05:55;;;;;;;;;;;3.20;99.90;;;;;;5056134;28;20061;-64
2022/02/28 04:08:20;;;;;;;;;;;3.20;99.90;;;;;;5075125;28;19920;-64
2022/02/28 04:10:46;;;;;;;;;;;3.20;99.90;;;;;;5056746;28;19916;-65
2022/02/28 04:13:11;;;;;;;;;;;3.10;99.90;;;;;;5075177;28;19987;-64
2022/02/28 04:15:37;;;;;;;;;;;3.10;99.90;;;;;;5074456;28;19955;-64
2022/02/28 04:18:02;;;;;;;;;;;3.10;99.90;;;;;;5074987;28;20007;-66
2022/02/28 04:20:28;;;;;;;;;;;3.10;99.90;;;;;;5074856;28;19944;-65
2022/02/28 04:23:06;;;;;;;;;;;3.00;99.90;;;;;;5059991;28;20337;-65
2022/02/28 04:25:32;;;;;;;;;;;3.00;99.90;;;;;;5077127;28;19908;-64
2022/02/28 04:27:58;;;;;;;;;;;3.00;99.90;;;;;;5094959;28;20017;-64
2022/02/28 04:30:23;;;;;;;;;;;2.90;99.90;;;;;;5077138;28;19908;-64
2022/02/28 04:32:49;;;;;;;;;;;3.00;99.90;;;;;;5094514;28;19958;-66
2022/02/28 04:35:14;;;;;;;;;;;3.00;99.90;;;;;;5095080;28;19917;-66
2022/02/28 04:37:40;;;;;;;;;;;3.00;99.90;;;;;;5094608;28;19908;-64
2022/02/28 04:40:05;;;;;;;;;;;3.00;99.90;;;;;;5094698;28;19908;-64
2022/02/28 04:42:31;;;;;;;;;;;3.00;99.90;;;;;;5076427;28;20376;-65
2022/02/28 04:44:56;;;;;;;;;;;3.00;99.90;;;;;;5075594;28;19919;-65
2022/02/28 04:47:23;;;;;;;;;;;3.00;99.90;;;;;;5076240;28;19914;-65
2022/02/28 04:49:48;;;;;;;;;;;3.00;99.90;;;;;;5093836;28;19914;-64
2022/02/28 04:52:14;;;;;;;;;;;3.00;99.90;;;;;;5076188;28;20015;-64
2022/02/28 04:54:39;;;;;;;;;;;3.00;99.90;;;;;;5094027;28;19908;-66
2022/02/28 04:57:05;;;;;;;;;;;3.00;99.90;;;;;;5077799;28;19909;-68
2022/02/28 04:59:30;;;;;;;;;;;3.00;99.90;;;;;;5096669;28;19908;-65
2022/02/28 05:01:56;;;;;;;;;;;2.90;99.90;;;;;;5093713;28;19927;-65
2022/02/28 05:04:21;;;;;;;;;;;3.00;99.90;;;;;;5094017;28;19923;-66
2022/02/28 05:06:47;;;;;;;;;;;2.90;99.90;;;;;;5074401;28;19981;-65
2022/02/28 05:09:12;;;;;;;;;;;2.90;99.90;;;;;;5093941;28;20337;-64
2022/02/28 05:11:38;;;;;;;;;;;3.00;99.90;;;;;;5094054;28;19915;-70
2022/02/28 05:14:03;;;;;;;;;;;3.00;99.90;;;;;;5094271;28;19919;-64
2022/02/28 05:16:29;;;;;;;;;;;2.90;99.90;;;;;;5076317;28;19908;-67
2022/02/28 05:18:54;;;;;;;;;;;2.90;99.90;;;;;;5093673;28;19908;-65
2022/02/28 05:21:20;;;;;;;;;;;3.00;99.90;;;;;;5075791;28;19953;-65
2022/02/28 05:23:45;;;;;;;;;;;3.00;99.90;;;;;;5093716;28;20288;-64
2022/02/28 05:26:11;;;;;;;;;;;3.00;99.90;;;;;;5094635;28;19908;-65
2022/02/28 05:28:36;;;;;;;;;;;2.80;99.90;;;;;;5076029;28;19912;-66
2022/02/28 05:31:02;;;;;;;;;;;2.90;99.90;;;;;;5093080;28;19908;-65
2022/02/28 05:33:27;;;;;;;;;;;2.80;99.90;;;;;;5094000;28;19954;-65
2022/02/28 05:35:53;;;;;;;;;;;2.80;99.90;;;;;;5092990;28;19908;-65
2022/02/28 05:38:18;;;;;;;;;;;2.70;99.90;;;;;;5093725;28;19970;-66
2022/02/28 05:40:46;;;;;;;;;;;2.80;99.90;;;;;;5093143;28;19931;-65
2022/02/28 05:43:12;;;;;;;;;;;2.80;99.90;;;;;;5075734;28;19916;-68
2022/02/28 05:45:37;;;;;;;;;;;2.70;99.90;;;;;;5093838;28;19919;-66
2022/02/28 05:48:03;;;;;;;;;;;2.80;99.90;;;;;;5093088;28;19957;-69
2022/02/28 05:50:29;;;;;;;;;;;2.70;99.90;;;;;;5093381;28;19907;-64
2022/02/28 05:52:54;;;;;;;;;;;2.80;99.90;;;;;;5093271;28;20377;-65
2022/02/28 05:55:20;;;;;;;;;;;2.80;99.90;;;;;;5093869;28;19909;-66
2022/02/28 05:57:47;;;;;;;;;;;2.70;99.90;;;;;;5093394;28;20410;-66
2022/02/28 06:00:13;;;;;;;;;;;2.80;99.90;;;;;;5093285;28;20020;-66
2022/02/28 06:02:38;;;;;;;;;;;2.80;99.90;;;;;;5093709;28;20010;-65
2022/02/28 06:05:04;;;;;;;;;;;2.80;99.90;;;;;;5074415;28;19915;-67
2022/02/28 06:07:30;;;;;;;;;;;2.70;99.90;;;;;;5093078;28;19915;-66
2022/02/28 06:09:55;;;;;;;;;;;2.70;99.90;;;;;;5074430;28;20349;-66
2022/02/28 06:12:21;;;;;;;;;;;2.80;99.90;;;;;;5092857;28;19909;-65
2022/02/28 06:14:46;;;;;;;;;;;2.80;99.90;;;;;;5092069;28;19916;-66
2022/02/28 06:17:12;;;;;;;;;;;2.80;99.90;;;;;;5093115;28;19912;-65
2022/02/28 06:19:38;;;;;;;;;;;2.70;99.90;;;;;;5092852;28;19908;-65
2022/02/28 06:22:04;;;;;;;;;;;2.80;99.90;;;;;;5073969;28;19951;-65
2022/02/28 06:24:30;;;;;;;;;;;2.80;99.90;;;;;;5075094;28;20069;-67
2022/02/28 06:26:56;;;;;;;;;;;2.90;99.90;;;;;;5075531;28;19950;-67
2022/02/28 06:29:21;;;;;;;;;;;2.80;99.90;;;;;;5094709;28;20219;-69
2022/02/28 06:31:47;;;;;;;;;;;2.90;99.90;;;;;;5093159;28;19912;-66
2022/02/28 06:34:13;;;;;;;;;;;2.90;99.90;;;;;;5093383;28;19912;-65
2022/02/28 06:36:38;;;;;;;;;;;3.00;99.90;;;;;;5093136;28;19908;-66
2022/02/28 06:39:06;;;;;;;;;;;3.10;99.90;;;;;;5092430;28;19908;-68
2022/02/28 06:41:31;;;;;;;;;;;3.10;99.90;;;;;;5075071;28;19991;-66
2022/02/28 06:43:57;;;;;;;;;;;3.10;99.90;;;;;;5092362;28;20008;-67
2022/02/28 06:46:23;;;;;;;;;;;3.20;99.90;;;;;;5074799;28;20372;-65
2022/02/28 06:48:49;;;;;;;;;;;3.30;99.90;;;;;;5074559;28;19908;-65
2022/02/28 06:51:15;;;;;;;;;;;3.40;99.90;;;;;;5093646;28;20281;-66
2022/02/28 06:53:41;;;;;;;;;;;3.50;99.90;;;;;;5096764;28;19916;-65
2022/02/28 06:56:06;;;;;;;;;;;3.80;99.90;;;;;;5092840;28;19912;-66
2022/02/28 06:58:32;;;;;;;;;;;3.80;99.90;;;;;;5093230;28;20246;-65
2022/02/28 07:00:57;;;;;;;;;;;4.00;99.90;;;;;;5074390;28;19909;-66
2022/02/28 07:03:23;;;;;;;;;;;4.50;99.90;;;;;;5074747;28;19974;-65
2022/02/28 07:05:53;;;;;;;;;;;4.70;99.90;;;;;;5092348;28;19908;-66
2022/02/28 07:08:19;;;;;;;;;;;4.90;99.90;;;;;;5092765;28;19908;-67
2022/02/28 07:10:45;;;;;;;;;;;5.20;99.90;;;;;;5092465;28;19909;-73
2022/02/28 07:13:11;;;;;;;;;;;5.40;99.90;;;;;;5090616;28;20359;-68
2022/02/28 07:15:41;;;;;;;;;;;5.70;99.70;;;;;;5068110;28;19947;-67
2022/02/28 07:18:08;;;;;;;;;;;5.90;98.80;;;;;;5054501;28;19916;-68
2022/02/28 07:20:34;;;;;;;;;;;5.80;98.60;;;;;;5055523;28;20253;-66
2022/02/28 07:22:59;;;;;;;;;;;6.00;98.20;;;;;;5062099;28;19986;-64
2022/02/28 07:25:25;;;;;;;;;;;5.90;97.70;;;;;;5053654;28;20314;-67
2022/02/28 07:27:50;;;;;;;;;;;6.40;96.80;;;;;;5090086;28;19908;-67
2022/02/28 07:30:16;;;;;;;;;;;6.70;96.40;;;;;;5069535;28;19966;-68
2022/02/28 07:32:42;;;;;;;;;;;6.90;96.30;;;;;;5096380;28;19913;-67
2022/02/28 07:35:07;;;;;;;;;;;6.90;95.90;;;;;;5096049;28;19912;-66
2022/02/28 07:37:35;;;;;;;;;;;7.20;95.70;;;;;;5073432;28;19913;-67
2022/02/28 07:40:01;;;;;;;;;;;7.10;95.30;;;;;;5078225;28;20384;-71
2022/02/28 07:42:26;;;;;;;;;;;7.50;94.80;;;;;;5097055;28;19912;-67
2022/02/28 07:44:52;;;;;;;;;;;7.70;94.60;;;;;;5096924;28;20338;-66
2022/02/28 07:47:17;;;;;;;;;;;7.90;94.00;;;;;;5078333;28;20313;-67
2022/02/28 07:49:43;;;;;;;;;;;8.10;93.90;;;;;;5077893;28;19912;-66
2022/02/28 07:52:09;;;;;;;;;;;8.00;93.10;;;;;;5074274;28;19917;-66
2022/02/28 07:54:34;;;;;;;;;;;7.90;93.30;;;;;;5075813;28;19999;-62
2022/02/28 07:57:00;;;;;;;;;;;9.70;99.90;;;;;;5073328;28;19999;-64
2022/02/28 07:59:25;;;;;;;;;;;11.40;99.90;;;;;;5083656;28;19955;-69
2022/02/28 08:01:51;;;;;;;;;;;11.10;92.10;;;;;;5087817;28;19912;-68
2022/02/28 08:04:16;;;;;;;;;;;10.50;89.50;;;;;;5060802;28;19924;-68
2022/02/28 08:06:42;;;;;;;;;;;10.50;91.60;;;;;;5075740;28;20015;-68
2022/02/28 08:09:08;;;;;;;;;;;10.20;89.50;;;;;;5075432;28;20099;-67
2022/02/28 08:11:35;;;;;;;;;;;10.40;92.70;;;;;;5079385;28;19915;-66
2022/02/28 08:14:01;;;;;;;;;;;10.70;90.40;;;;;;5076282;28;19912;-67
2022/02/28 08:16:27;;;;;;;;;;;10.50;88.10;;;;;;5089551;28;20003;-66
2022/02/28 08:18:52;;;;;;;;;;;10.90;87.00;;;;;;5077074;28;19912;-67
2022/02/28 08:21:18;;;;;;;;;;;11.70;84.50;;;;;;5091396;28;19934;-67
2022/02/28 08:23:44;;;;;;;;;;;11.60;81.10;;;;;;5088224;28;19925;-73
2022/02/28 08:26:09;;;;;;;;;;;10.10;83.50;;;;;;5072691;28;20144;-70
2022/02/28 08:28:35;;;;;;;;;;;10.00;85.80;;;;;;5084846;28;19912;-67
2022/02/28 08:31:00;;;;;;;;;;;10.70;83.60;;;;;;5073762;28;19960;-67
2022/02/28 08:33:26;;;;;;;;;;;11.30;82.60;;;;;;5075452;28;20320;-70
2022/02/28 08:35:52;;;;;;;;;;;11.10;81.30;;;;;;5082745;28;20284;-69
2022/02/28 08:38:18;;;;;;;;;;;11.40;80.30;;;;;;5058255;28;19919;-66
2022/02/28 08:40:44;;;;;;;;;;;10.50;80.80;;;;;;5057342;28;19935;-73
2022/02/28 08:43:09;;;;;;;;;;;10.50;82.60;;;;;;5075054;28;19924;-68
2022/02/28 08:45:35;;;;;;;;;;;10.40;82.50;;;;;;5068782;28;20246;-66
2022/02/28 08:48:00;;;;;;;;;;;10.80;81.10;;;;;;5093973;28;19912;-66
2022/02/28 08:50:26;;;;;;;;;;;10.40;82.30;;;;;;5092054;28;19947;-65
2022/02/28 08:52:51;;;;;;;;;;;9.90;82.20;;;;;;5079169;28;19916;-69
2022/02/28 08:55:17;;;;;;;;;;;9.90;82.30;;;;;;5075128;28;19918;-67
2022/02/28 08:57:42;;;;;;;;;;;9.70;82.70;;;;;;5078247;28;20001;-67
2022/02/28 09:00:09;;;;;;;;;;;10.60;82.40;;;;;;5077795;28;19913;-66
2022/02/28 09:02:35;;;;;;;;;;;11.20;81.30;;;;;;5075731;28;19916;-67
2022/02/28 09:05:01;;;;;;;;;;;11.80;80.50;;;;;;5056238;28;19969;-67
2022/02/28 09:07:26;;;;;;;;;;;11.00;78.40;;;;;;5092149;28;19915;-67
2022/02/28 09:09:52;;;;;;;;;;;10.50;78.80;;;;;;5076363;28;19931;-71
2022/02/28 09:12:17;;;;;;;;;;;10.30;79.70;;;;;;5087658;28;20478;-67
2022/02/28 09:14:43;;;;;;;;;;;10.90;79.40;;;;;;5070219;28;19916;-67
2022/02/28 09:17:09;;;;;;;;;;;11.20;77.80;;;;;;5088615;28;19927;-69
2022/02/28 09:19:34;;;;;;;;;;;11.80;77.10;;;;;;5083332;28;19958;-71
2022/02/28 09:22:00;;;;;;;;;;;11.60;76.30;;;;;;5069480;28;20358;-70
2022/02/28 09:24:28;;;;;;;;;;;10.90;78.60;;;;;;5072164;28;19923;-69
2022/02/28 09:26:54;;;;;;;;;;;11.40;77.20;;;;;;5075328;28;19909;-71
2022/02/28 09:29:20;;;;;;;;;;;11.70;76.90;;;;;;5056605;28;20474;-68
2022/02/28 09:31:46;;;;;;;;;;;10.70;78.00;;;;;;5056140;28;19908;-68
2022/02/28 09:34:12;;;;;;;;;;;11.00;78.50;;;;;;5073793;28;19909;-65
2022/02/28 09:36:37;;;;;;;;;;;11.10;76.70;;;;;;5074205;28;19909;-67
2022/02/28 09:39:03;;;;;;;;;;;10.90;77.30;;;;;;5055518;28;20362;-73
2022/02/28 09:41:29;;;;;;;;;;;11.50;76.10;;;;;;5073939;28;19915;-70
2022/02/28 09:43:55;;;;;;;;;;;10.80;77.80;;;;;;5074201;28;19924;-69
2022/02/28 09:46:21;;;;;;;;;;;12.00;76.40;;;;;;5057756;28;20273;-69
2022/02/28 09:48:47;;;;;;;;;;;12.00;76.30;;;;;;5057730;28;19912;-66
2022/02/28 09:51:13;;;;;;;;;;;12.70;75.10;;;;;;5053651;28;20027;-67
2022/02/28 09:53:39;;;;;;;;;;;13.50;73.10;;;;;;5071489;28;20031;-65
2022/02/28 09:56:04;;;;;;;;;;;13.70;72.20;;;;;;5072961;28;19915;-67
2022/02/28 09:58:30;;;;;;;;;;;13.90;71.70;;;;;;5074028;28;19954;-67
2022/02/28 10:00:57;;;;;;;;;;;13.90;70.20;;;;;;5071425;28;19985;-68
2022/02/28 10:03:26;;;;;;;;;;;14.30;70.30;;;;;;5071270;28;19920;-66
2022/02/28 10:05:58;;;;;;;;;;;14.00;70.20;;;;;;5071713;28;19920;-67
2022/02/28 10:08:23;;;;;;;;;;;13.80;69.30;;;;;;5053536;28;19908;-67
2022/02/28 10:10:49;;;;;;;;;;;14.40;70.00;;;;;;5071606;28;19909;-65
2022/02/28 10:13:24;;;;;;;;;;;13.50;69.70;;;;;;5053045;28;19923;-67
2022/02/28 10:15:50;;;;;;;;;;;;;;;;;;5071425;28;19915;-67
2022/02/28 10:18:16;;;;;;;;;;;14.90;65.60;;;;;;5052157;28;20019;-68
2022/02/28 10:20:42;;;;;;;;;;;14.50;66.40;;;;;;5070914;28;19927;-66
2022/02/28 10:23:09;;;;;;;;;;;14.10;66.90;;;;;;5070159;28;19979;-66
2022/02/28 10:25:37;;;;;;;;;;;14.20;68.10;;;;;;5071120;28;19909;-67
2022/02/28 10:28:17;;;;;;;;;;;14.70;66.00;;;;;;5070727;28;20358;-67
2022/02/28 10:31:11;;;;;;;;;;;13.60;67.30;;;;;;5071529;28;20353;-66
2022/02/28 10:33:39;;;;;;;;;;;14.50;66.90;;;;;;5031367;28;20379;-67
2022/02/28 10:36:11;;;;;;;;;;;14.60;64.40;;;;;;5070378;28;19919;-67
2022/02/28 10:38:40;;;;;;;;;;;14.80;65.10;;;;;;5071018;28;19908;-67
2022/02/28 10:41:14;;;;;;;;;;;14.00;65.20;;;;;;5070307;28;20373;-67
2022/02/28 10:43:41;;;;;;;;;;;13.80;65.60;;;;;;5070882;28;19916;-66
2022/02/28 10:46:17;;;;;;;;;;;14.30;67.70;;;;;;5051997;28;19908;-67
2022/02/28 10:48:53;;;;;;;;;;;15.00;64.60;;;;;;5070998;28;19908;-66
2022/02/28 10:51:18;;;;;;;;;;;14.90;65.00;;;;;;5070304;28;20062;-66
2022/02/28 10:53:44;;;;;;;;;;;16.20;63.40;;;;;;5070944;28;19928;-66
2022/02/28 10:56:09;;;;;;;;;;;16.80;62.80;;;;;;5069852;28;19915;-65
2022/02/28 10:58:35;;;;;;;;;;;17.20;59.50;;;;;;5070586;28;19931;-67
2022/02/28 11:01:06;;;;;;;;;;;16.50;59.80;;;;;;5051748;28;19908;-68
2022/02/28 11:03:46;;;;;;;;;;;16.30;61.10;;;;;;5052918;28;19916;-67
2022/02/28 11:06:13;;;;;;;;;;;16.50;59.20;;;;;;5071839;28;19913;-67
2022/02/28 11:08:42;;;;;;;;;;;16.00;59.80;;;;;;5074203;28;19916;-67
2022/02/28 11:11:09;;;;;;;;;;;16.40;59.40;;;;;;5055188;28;19924;-67
2022/02/28 11:13:35;;;;;;;;;;;16.70;59.80;;;;;;5074131;28;19909;-66
2022/02/28 11:16:00;;;;;;;;;;;15.80;59.10;;;;;;5073634;28;20296;-71
2022/02/28 11:18:26;;;;;;;;;;;16.20;59.90;;;;;;5074782;28;20006;-68
2022/02/28 11:20:55;;;;;;;;;;;15.30;59.70;;;;;;5055900;28;19938;-67
2022/02/28 11:23:24;;;;;;;;;;;15.20;58.70;;;;;;5068263;28;19933;-67
2022/02/28 11:25:49;;;;;;;;;;;15.00;60.60;;;;;;5077229;28;19955;-66
2022/02/28 11:28:16;;;;;;;;;;;16.20;59.70;;;;;;5093079;28;20000;-68
2022/02/28 11:30:41;;;;;;;;;;;16.70;57.10;;;;;;5075089;28;19912;-66
2022/02/28 11:33:10;;;;;;;;;;;15.60;57.90;;;;;;5085544;28;19932;-68
2022/02/28 11:35:38;;;;;;;;;;;15.80;58.40;;;;;;5084199;28;19909;-67
2022/02/28 11:38:06;;;;;;;;;;;15.70;58.90;;;;;;5089712;28;19912;-69
2022/02/28 11:40:33;;;;;;;;;;;15.60;57.30;;;;;;5074159;28;19911;-69
2022/02/28 11:43:17;;;;;;;;;;;15.70;58.80;;;;;;5088237;28;19916;-67
2022/02/28 11:45:55;;;;;;;;;;;14.80;58.80;;;;;;5075696;28;19905;-67
2022/02/28 11:48:23;;;;;;;;;;;15.90;57.50;;;;;;5093506;28;19904;-68
2022/02/28 11:50:50;;;;;;;;;;;14.90;58.20;;;;;;5076279;28;19997;-67
2022/02/28 11:53:34;;;;;;;;;;;15.80;58.40;;;;;;5092991;28;19916;-67
2022/02/28 11:56:01;;;;;;;;;;;16.60;56.90;;;;;;5058624;28;20346;-67
2022/02/28 11:58:27;;;;;;;;;;;15.80;56.90;;;;;;5072582;28;19950;-67
2022/02/28 12:01:07;;;;;;;;;;;15.40;58.00;;;;;;5073342;28;19908;-67
2022/02/28 12:03:34;;;;;;;;;;;14.90;58.60;;;;;;5073758;28;19956;-68
2022/02/28 12:06:03;;;;;;;;;;;15.50;58.00;;;;;;5073398;28;20082;-69
2022/02/28 12:08:39;;;;;;;;;;;16.00;57.70;;;;;;5073210;28;19908;-66
2022/02/28 12:11:32;;;;;;;;;;;15.10;58.40;;;;;;5054689;28;19908;-68
2022/02/28 12:14:02;;;;;;;;;;;15.10;58.80;;;;;;5070963;28;19915;-67
2022/02/28 12:19:29;;;;;;;;;;;16.00;57.10;;;;;;5092209;28;20292;-65
2022/02/28 12:21:59;;;;;;;;;;;17.10;56.00;;;;;;5090768;28;20241;-66
2022/02/28 12:24:43;;;;;;;;;;;17.10;55.00;;;;;;5080887;28;20270;-66
2022/02/28 12:27:15;;;;;;;;;;;15.10;57.00;;;;;;5081420;28;20337;-67
2022/02/28 12:29:40;;;;;;;;;;;15.00;56.70;;;;;;5075452;28;19904;-68
2022/02/28 12:32:06;;;;;;;;;;;15.50;56.80;;;;;;5092750;28;19973;-68
2022/02/28 12:34:32;;;;;;;;;;;16.30;56.30;;;;;;5088267;28;20318;-68
2022/02/28 12:36:58;;;;;;;;;;;17.20;55.10;;;;;;5068630;28;19984;-68
2022/02/28 12:39:23;;;;;;;;;;;16.80;55.90;;;;;;5065546;28;19935;-67
2022/02/28 12:41:55;;;;;;;;;;;16.70;54.60;;;;;;5074584;28;19964;-66
2022/02/28 12:44:21;;;;;;;;;;;16.10;55.10;;;;;;5073757;28;19926;-67
2022/02/28 12:46:48;;;;;;;;;;;17.00;54.60;;;;;;5074052;28;20299;-67
2022/02/28 12:49:14;;;;;;;;;;;18.10;54.30;;;;;;5073737;28;20345;-66
2022/02/28 12:51:41;;;;;;;;;;;19.10;52.90;;;;;;5092535;28;19905;-68
2022/02/28 12:54:08;;;;;;;;;;;19.10;52.60;;;;;;5074978;28;19957;-70
2022/02/28 12:57:03;;;;;;;;;;;19.60;51.70;;;;;;5076370;28;19904;-68
2022/02/28 12:59:39;;;;;;;;;;;20.10;50.70;;;;;;5058247;28;19909;-68
2022/02/28 13:02:05;;;;;;;;;;;20.70;50.50;;;;;;5071958;28;19904;-69
2022/02/28 13:04:31;;;;;;;;;;;20.90;50.10;;;;;;5071075;28;19928;-69
2022/02/28 13:06:57;;;;;;;;;;;18.90;50.00;;;;;;5071527;28;19904;-68
2022/02/28 13:09:22;;;;;;;;;;;18.80;50.40;;;;;;5069542;28;20348;-68
2022/02/28 13:11:48;;;;;;;;;;;19.30;50.50;;;;;;5072049;28;19904;-69
2022/02/28 13:14:17;;;;;;;;;;;20.00;49.90;;;;;;5071082;28;20257;-69
2022/02/28 13:16:50;;;;;;;;;;;19.10;49.50;;;;;;5076630;28;19904;-66
2022/02/28 13:19:29;;;;;;;;;;;19.30;50.00;;;;;;5091471;28;19908;-68
2022/02/28 13:22:00;;;;;;;;;;;19.80;49.80;;;;;;5066833;28;19927;-68
2022/02/28 13:24:26;;;;;;;;;;;19.90;49.70;;;;;;5073584;28;19970;-69
2022/02/28 13:26:52;;;;;;;;;;;19.60;49.10;;;;;;5073509;28;19904;-69
2022/02/28 13:29:20;;;;;;;;;;;19.60;50.00;;;;;;5090238;28;19912;-68
2022/02/28 13:31:47;;;;;;;;;;;19.20;50.30;;;;;;5091452;28;19905;-68
2022/02/28 13:34:13;;;;;;;;;;;19.40;49.80;;;;;;5090735;28;19977;-68
2022/02/28 13:36:47;;;;;;;;;;;20.10;48.70;;;;;;5073257;28;19904;-68
2022/02/28 13:39:24;;;;;;;;;;;19.40;48.60;;;;;;5090863;28;19948;-69
2022/02/28 13:41:50;;;;;;;;;;;19.40;49.50;;;;;;5073929;28;19983;-69
2022/02/28 13:44:16;;;;;;;;;;;17.90;49.70;;;;;;5069944;28;19969;-69
2022/02/28 13:47:02;;;;;;;;;;;18.90;50.00;;;;;;5082792;28;20006;-69
2022/02/28 13:49:41;;;;;;;;;;;19.00;49.50;;;;;;5091039;28;19943;-68
2022/02/28 13:52:07;;;;;;;;;;;19.50;48.90;;;;;;5090184;28;20365;-69
2022/02/28 13:54:34;;;;;;;;;;;19.70;48.40;;;;;;5070865;28;19947;-69
2022/02/28 13:57:28;;;;;;;;;;;19.80;48.40;;;;;;5078685;28;19908;-68
2022/02/28 14:00:13;;;;;;;;;;;20.50;47.80;;;;;;5051571;28;20233;-68
2022/02/28 14:02:53;;;;;;;;;;;19.80;47.70;;;;;;5072634;28;19927;-67
2022/02/28 14:05:19;;;;;;;;;;;17.90;48.10;;;;;;5079584;28;19909;-67
2022/02/28 14:07:53;;;;;;;;;;;17.00;49.20;;;;;;5078930;28;19910;-67
2022/02/28 14:10:26;;;;;;;;;;;17.10;49.50;;;;;;5055408;28;20302;-68
2022/02/28 14:12:52;;;;;;;;;;;17.80;49.30;;;;;;5072832;28;19927;-62
2022/02/28 14:15:21;;;;;;;;;;;18.80;59.70;;;;;;5090003;28;19908;-61
2022/02/28 14:17:57;;;;;;;;;;;18.00;60.50;;;;;;5072392;28;20016;-60
2022/02/28 14:20:23;;;;;;;;;;;18.60;54.60;;;;;;5090332;28;19904;-57
2022/02/28 14:23:02;;;;;;;;;;;19.30;60.10;;;;;;5090489;28;19927;-56
2022/02/28 14:25:28;;;;;;;;;;;19.10;54.20;;;;;;5090528;28;19912;-57